Time;durP1;ratioP1;P1;durP2;ratioP2;P2;SDS_P1;SDS_P2;PMS_P1;PMS_P2;Temp;Humidity;BMP_temperature;BMP_pressure;BME280_temperature;BME280_humidity;BME280_pressure;Samples;Min_cycle;Max_cycle;Signal;HPM_P1;HPM_P2
2021/06/22 00:02:16;;;;;;;10.27;7.30;;;716.80;1587.20;;;;;;5074511;28;20036;-65
2021/06/22 00:04:42;;;;;;;11.77;7.32;;;716.80;1561.60;;;;;;5074458;28;20024;-64
2021/06/22 00:07:08;;;;;;;12.73;7.32;;;692.10;1561.60;;;;;;5056628;28;20040;-63
2021/06/22 00:09:34;;;;;;;12.00;7.68;;;692.10;1536.00;;;;;;5074450;28;20021;-67
2021/06/22 00:12:00;;;;;;;11.93;7.20;;;692.10;1536.00;;;;;;5074334;28;20035;-64
2021/06/22 00:14:26;;;;;;;12.55;7.50;;;716.80;1561.60;;;;;;5074299;28;20044;-65
2021/06/22 00:16:52;;;;;;;9.73;7.65;;;716.80;1561.60;;;;;;5074333;28;20473;-65
2021/06/22 00:19:17;;;;;;;10.32;7.18;;;692.10;1536.00;;;;;;5074426;28;20079;-66
2021/06/22 00:21:43;;;;;;;12.82;7.45;;;692.10;1536.00;;;;;;5074169;28;20036;-64
2021/06/22 00:24:09;;;;;;;9.45;7.35;;;716.80;1561.60;;;;;;5074139;28;20024;-65
2021/06/22 00:26:35;;;;;;;25.20;8.02;;;716.80;1561.60;;;;;;5073988;28;20127;-65
2021/06/22 00:29:01;;;;;;;10.82;7.65;;;716.80;1561.60;;;;;;5074131;28;20029;-64
2021/06/22 00:31:27;;;;;;;8.30;7.32;;;716.80;1561.60;;;;;;5074050;28;20020;-64
2021/06/22 00:33:53;;;;;;;14.13;7.80;;;716.80;1561.60;;;;;;5074002;28;20048;-66
2021/06/22 00:36:18;;;;;;;13.20;7.57;;;716.80;1561.60;;;;;;5073936;28;20028;-65
2021/06/22 00:38:44;;;;;;;10.27;6.88;;;716.80;1561.60;;;;;;5073919;28;20426;-65
2021/06/22 00:41:10;;;;;;;9.82;7.78;;;716.80;1561.60;;;;;;5073765;28;20048;-65
2021/06/22 00:43:39;;;;;;;13.30;7.43;;;692.10;1561.60;;;;;;5073773;28;20081;-65
2021/06/22 00:46:06;;;;;;;8.82;7.35;;;692.10;1536.00;;;;;;5073773;28;20024;-65
2021/06/22 00:48:32;;;;;;;14.52;7.43;;;692.00;1536.00;;;;;;5073740;28;20495;-65
2021/06/22 00:50:58;;;;;;;9.70;8.00;;;692.00;1561.60;;;;;;5055767;28;20056;-65
2021/06/22 00:53:24;;;;;;;13.18;8.98;;;692.00;1561.60;;;;;;5073946;28;20016;-65
2021/06/22 00:55:54;;;;;;;9.55;7.93;;;692.00;1561.60;;;;;;5072872;28;20031;-65
2021/06/22 00:58:21;;;;;;;10.90;7.95;;;692.00;1561.60;;;;;;5073578;28;20060;-67
2021/06/22 01:00:47;;;;;;;14.85;8.60;;;691.90;1561.60;;;;;;5073511;28;20017;-65
2021/06/22 01:03:13;;;;;;;12.93;8.50;;;692.00;1561.60;;;;;;5073550;28;20104;-64
2021/06/22 01:05:39;;;;;;;13.82;8.85;;;691.90;1561.60;;;;;;5055568;28;20025;-65
2021/06/22 01:08:05;;;;;;;10.45;8.52;;;691.80;1587.20;;;;;;5073600;28;20078;-65
2021/06/22 01:10:31;;;;;;;9.82;8.90;;;691.80;1587.20;;;;;;5073684;28;20027;-65
2021/06/22 01:12:57;;;;;;;14.27;8.95;;;691.80;1587.20;;;;;;5073397;28;20021;-65
2021/06/22 01:15:27;;;;;;;13.85;9.00;;;691.80;1587.20;;;;;;5073534;28;20047;-65
2021/06/22 01:18:03;;;;;;;11.57;8.98;;;691.40;1587.20;;;;;;5073396;28;20016;-65
2021/06/22 01:20:31;;;;;;;12.60;9.13;;;691.80;1587.20;;;;;;5055441;28;20020;-65
2021/06/22 01:23:02;;;;;;;17.25;9.70;;;691.80;1587.20;;;;;;5073360;28;20040;-64
2021/06/22 01:25:29;;;;;;;13.02;8.68;;;691.90;1587.20;;;;;;5073150;28;20029;-64
2021/06/22 01:27:58;;;;;;;15.60;9.85;;;691.70;1612.80;;;;;;5073133;28;20058;-64
2021/06/22 01:30:29;;;;;;;21.50;15.48;;;691.70;1612.80;;;;;;5073186;28;20046;-65
2021/06/22 01:32:55;;;;;;;24.58;18.35;;;691.70;1612.80;;;;;;5055318;28;20024;-64
2021/06/22 01:35:22;;;;;;;30.75;27.75;;;691.70;1612.80;;;;;;5073173;28;20028;-64
2021/06/22 01:37:59;;;;;;;28.48;23.15;;;691.70;1612.80;;;;;;5055222;28;20024;-64
2021/06/22 01:40:26;;;;;;;18.17;16.35;;;691.70;1612.80;;;;;;5073162;28;20021;-64
2021/06/22 01:42:56;;;;;;;14.27;12.60;;;691.70;1612.80;;;;;;5073340;28;20166;-64
2021/06/22 01:45:23;;;;;;;16.38;11.25;;;691.70;1612.80;;;;;;5073391;28;20027;-65
2021/06/22 01:47:48;;;;;;;14.75;10.95;;;691.60;1612.80;;;;;;5073107;28;20029;-65
2021/06/22 01:50:16;;;;;;;14.35;10.70;;;691.60;1612.80;;;;;;5073025;28;20546;-64
2021/06/22 01:52:42;;;;;;;12.10;9.75;;;691.60;1612.80;;;;;;5055052;28;20455;-64
2021/06/22 01:57:55;;;;;;;13.63;10.82;;;691.50;1638.40;;;;;;5073303;28;20024;-64
2021/06/22 02:00:21;;;;;;;14.35;10.68;;;691.40;1664.00;;;;;;5055005;28;20029;-64
2021/06/22 02:02:47;;;;;;;10.93;9.80;;;691.30;1638.40;;;;;;5072832;28;20469;-64
2021/06/22 02:05:14;;;;;;;15.80;10.40;;;691.40;1638.40;;;;;;5073069;28;20031;-64
2021/06/22 02:07:41;;;;;;;14.85;10.38;;;691.30;1638.40;;;;;;5075611;28;20028;-64
2021/06/22 02:10:08;;;;;;;16.60;10.80;;;691.30;1638.40;;;;;;5058733;28;20017;-65
2021/06/22 02:12:34;;;;;;;18.13;10.85;;;691.30;1638.40;;;;;;5077277;28;20028;-64
2021/06/22 02:15:01;;;;;;;15.75;10.70;;;691.30;1638.40;;;;;;5076755;28;20361;-64
2021/06/22 02:17:27;;;;;;;16.25;10.50;;;691.30;1638.40;;;;;;5076920;28;20028;-65
2021/06/22 02:19:53;;;;;;;15.38;10.57;;;691.30;1638.40;;;;;;5076613;28;20095;-64
2021/06/22 02:22:19;;;;;;;14.25;10.82;;;691.30;1638.40;;;;;;5076536;28;20058;-64
2021/06/22 02:24:45;;;;;;;15.77;10.93;;;691.30;1638.40;;;;;;5076625;28;20100;-64
2021/06/22 02:27:28;;;;;;;14.15;12.02;;;691.30;1638.40;;;;;;5076304;28;20048;-64
2021/06/22 02:29:55;;;;;;;20.13;10.57;;;666.50;1689.60;;;;;;5076462;28;20024;-64
2021/06/22 02:32:21;;;;;;;16.73;11.55;;;691.20;1664.00;;;;;;5076611;28;20025;-65
2021/06/22 02:34:47;;;;;;;21.63;11.65;;;691.20;1664.00;;;;;;5076160;28;20029;-64
2021/06/22 02:37:13;;;;;;;23.92;12.50;;;691.20;1664.00;;;;;;5058430;28;20035;-64
2021/06/22 02:39:39;;;;;;;25.58;13.52;;;691.20;1664.00;;;;;;5058258;28;20111;-64
2021/06/22 02:42:05;;;;;;;22.80;12.20;;;691.20;1689.60;;;;;;5076128;28;20036;-64
2021/06/22 02:44:32;;;;;;;27.90;13.18;;;691.20;1664.00;;;;;;5076048;28;20464;-64
2021/06/22 02:46:58;;;;;;;28.95;12.25;;;691.20;1664.00;;;;;;5076358;28;20048;-72
2021/06/22 02:49:23;;;;;;;23.83;11.80;;;666.50;1664.00;;;;;;5076035;28;20377;-65
2021/06/22 02:51:49;;;;;;;28.20;11.68;;;666.40;1664.00;;;;;;5076004;28;20020;-64
2021/06/22 02:54:15;;;;;;;18.27;11.75;;;666.40;1664.00;;;;;;5075990;28;20492;-64
2021/06/22 02:56:41;;;;;;;18.77;11.55;;;666.40;1664.00;;;;;;5076195;28;20024;-64
2021/06/22 02:59:07;;;;;;;18.90;11.43;;;666.40;1664.00;;;;;;5075847;28;20104;-64
2021/06/22 03:01:33;;;;;;;19.60;11.23;;;666.40;1689.60;;;;;;5075754;28;20040;-64
2021/06/22 03:03:59;;;;;;;19.45;11.65;;;666.40;1664.00;;;;;;5075828;28;20031;-64
2021/06/22 03:06:25;;;;;;;19.05;11.73;;;666.40;1689.60;;;;;;5075749;28;20025;-65
2021/06/22 03:08:51;;;;;;;18.20;11.70;;;666.40;1664.00;;;;;;5075735;28;20389;-64
2021/06/22 03:11:16;;;;;;;19.77;11.48;;;666.40;1664.00;;;;;;5075556;28;20025;-64
2021/06/22 03:13:42;;;;;;;19.45;11.52;;;666.40;1664.00;;;;;;5075625;28;20031;-64
2021/06/22 03:16:08;;;;;;;20.17;11.75;;;666.40;1689.60;;;;;;5075523;28;20033;-64
2021/06/22 03:18:34;;;;;;;16.00;11.20;;;666.30;1689.60;;;;;;5074611;28;20028;-65
2021/06/22 03:21:00;;;;;;;17.83;11.43;;;666.30;1689.60;;;;;;5075657;28;20020;-64
2021/06/22 03:23:26;;;;;;;13.52;10.80;;;666.10;1689.60;;;;;;5075414;28;20381;-64
2021/06/22 03:25:52;;;;;;;22.10;11.73;;;666.10;1740.80;;;;;;5057129;28;20044;-64
2021/06/22 03:28:18;;;;;;;13.40;11.32;;;666.10;1715.20;;;;;;5075628;28;20469;-64
2021/06/22 03:30:45;;;;;;;15.52;11.70;;;666.00;1715.20;;;;;;5075247;28;20060;-65
2021/06/22 03:33:11;;;;;;;16.60;11.88;;;666.00;1715.20;;;;;;5075291;28;20020;-64
2021/06/22 03:35:37;;;;;;;18.88;11.80;;;666.00;1715.20;;;;;;5075137;28;20495;-64
2021/06/22 03:38:04;;;;;;;16.42;10.98;;;666.10;1715.20;;;;;;5075149;28;20025;-64
2021/06/22 03:40:30;;;;;;;16.23;11.80;;;666.00;1715.20;;;;;;5075022;28;20024;-64
2021/06/22 03:42:57;;;;;;;22.70;11.70;;;666.10;1715.20;;;;;;5075065;28;20035;-65
2021/06/22 03:45:24;;;;;;;18.33;12.13;;;666.00;1740.80;;;;;;5074925;28;20524;-64
2021/06/22 03:47:50;;;;;;;16.10;11.32;;;666.00;1715.20;;;;;;5075185;28;20464;-65
2021/06/22 03:50:16;;;;;;;19.15;11.00;;;666.00;1715.20;;;;;;5074622;28;20024;-70
2021/06/22 03:52:42;;;;;;;13.43;10.82;;;666.00;1715.20;;;;;;5074788;28;20108;-70
2021/06/22 03:58:05;;;;;;;15.85;10.45;;;666.00;1715.20;;;;;;5012403;28;20050;-65
2021/06/22 04:00:32;;;;;;;13.02;10.38;;;666.10;1715.20;;;;;;5012466;28;20660;-66
2021/06/22 04:02:59;;;;;;;12.98;10.73;;;666.10;1715.20;;;;;;5006146;28;20053;-71
2021/06/22 04:05:27;;;;;;;15.05;10.50;;;666.10;1715.20;;;;;;5010650;28;20491;-66
2021/06/22 04:07:53;;;;;;;13.95;10.77;;;666.10;1715.20;;;;;;5008207;28;20138;-69
2021/06/22 04:10:20;;;;;;;13.35;10.55;;;666.10;1715.20;;;;;;4994054;28;20030;-68
2021/06/22 04:12:46;;;;;;;14.02;10.30;;;666.10;1715.20;;;;;;4991567;28;20081;-65
2021/06/22 04:15:12;;;;;;;14.30;11.23;;;666.10;1715.20;;;;;;4990829;28;20039;-66
2021/06/22 04:17:38;;;;;;;13.57;11.43;;;666.10;1715.20;;;;;;4993030;28;20363;-65
2021/06/22 04:20:06;;;;;;;15.10;10.93;;;666.10;1740.80;;;;;;4992929;28;20105;-64
2021/06/22 04:22:32;;;;;;;18.77;11.45;;;666.10;1740.80;;;;;;4993041;28;20046;-64
2021/06/22 04:24:58;;;;;;;15.70;11.35;;;666.10;1715.20;;;;;;4992592;28;20030;-67
2021/06/22 04:27:24;;;;;;;12.98;11.65;;;666.10;1740.80;;;;;;4992895;28;20100;-65
2021/06/22 04:29:50;;;;;;;13.18;11.60;;;666.10;1740.80;;;;;;4992857;28;20062;-65
2021/06/22 04:32:16;;;;;;;19.52;11.63;;;666.20;1740.80;;;;;;4992806;28;20054;-65
2021/06/22 04:34:42;;;;;;;18.42;12.10;;;666.20;1715.20;;;;;;5017955;28;20045;-65
2021/06/22 04:37:08;;;;;;;16.58;10.82;;;666.30;1715.20;;;;;;5034222;28;20021;-66
2021/06/22 04:39:34;;;;;;;16.50;11.70;;;666.40;1715.20;;;;;;5034016;28;20103;-65
2021/06/22 04:42:00;;;;;;;16.98;11.95;;;666.30;1740.80;;;;;;5033890;28;20033;-65
2021/06/22 04:44:26;;;;;;;15.20;11.30;;;666.30;1740.80;;;;;;5034240;28;20105;-65
2021/06/22 04:46:52;;;;;;;15.45;11.95;;;666.30;1715.20;;;;;;5034188;28;20078;-64
2021/06/22 04:49:18;;;;;;;18.60;12.45;;;666.30;1740.80;;;;;;5033959;28;20030;-66
2021/06/22 04:51:43;;;;;;;20.52;11.38;;;666.30;1766.40;;;;;;5033865;28;20041;-67
2021/06/22 04:54:11;;;;;;;17.35;10.82;;;666.30;1740.80;;;;;;5033825;28;20036;-64
2021/06/22 04:56:37;;;;;;;16.77;11.38;;;666.30;1740.80;;;;;;5033751;28;20021;-65
2021/06/22 04:59:03;;;;;;;17.95;11.15;;;666.30;1740.80;;;;;;5033663;28;20026;-65
2021/06/22 05:01:30;;;;;;;19.67;11.27;;;666.30;1766.40;;;;;;5033589;28;20029;-65
2021/06/22 05:03:56;;;;;;;18.83;11.02;;;666.30;1766.40;;;;;;5033666;28;20025;-65
2021/06/22 05:06:22;;;;;;;16.17;10.60;;;666.30;1792.00;;;;;;5033630;28;20059;-65
2021/06/22 05:08:48;;;;;;;21.02;10.95;;;666.40;1740.80;;;;;;5033792;28;20104;-65
2021/06/22 05:11:14;;;;;;;16.88;10.70;;;666.40;1740.80;;;;;;5032353;28;20026;-65
2021/06/22 05:13:41;;;;;;;19.13;11.45;;;666.50;1766.40;;;;;;5033531;28;20406;-68
2021/06/22 05:16:07;;;;;;;15.38;10.50;;;691.20;1766.40;;;;;;5033517;28;20022;-65
2021/06/22 05:18:34;;;;;;;19.05;10.70;;;691.20;1740.80;;;;;;5033468;28;20033;-65
2021/06/22 05:21:00;;;;;;;20.80;10.25;;;691.20;1740.80;;;;;;5033399;28;20577;-65
2021/06/22 05:23:26;;;;;;;22.08;10.98;;;691.30;1740.80;;;;;;5033689;28;20072;-65
2021/06/22 05:25:52;;;;;;;26.08;9.85;;;691.40;1715.20;;;;;;5031868;28;20049;-65
2021/06/22 05:28:18;;;;;;;20.65;10.10;;;691.40;1766.40;;;;;;5033333;28;20036;-65
2021/06/22 05:30:44;;;;;;;19.35;9.93;;;691.50;1766.40;;;;;;5033657;28;20025;-65
2021/06/22 05:33:10;;;;;;;21.42;9.70;;;691.50;1689.60;;;;;;5033342;28;20378;-65
2021/06/22 05:35:36;;;;;;;21.27;9.38;;;691.60;1715.20;;;;;;5033572;28;20109;-65
2021/06/22 05:38:02;;;;;;;19.45;8.80;;;691.70;1689.60;;;;;;5033258;28;20072;-67
2021/06/22 05:40:28;;;;;;;28.83;9.80;;;691.70;1689.60;;;;;;5033227;28;20541;-65
2021/06/22 05:42:54;;;;;;;21.63;8.82;;;691.80;1689.60;;;;;;5036274;28;20042;-66
2021/06/22 05:45:20;;;;;;;28.58;9.73;;;691.90;1689.60;;;;;;5037094;28;20021;-65
2021/06/22 05:47:46;;;;;;;23.60;9.43;;;691.90;1715.20;;;;;;5037147;28;20072;-65
2021/06/22 05:50:12;;;;;;;18.58;8.98;;;691.90;1689.60;;;;;;5037207;28;20032;-65
2021/06/22 05:52:38;;;;;;;19.58;9.02;;;692.00;1689.60;;;;;;5035960;28;20033;-64
2021/06/22 05:55:16;;;;;;;31.50;9.55;;;692.00;1689.60;;;;;;5037148;28;20469;-66
2021/06/22 05:57:47;;;;;;;26.52;8.88;;;692.10;1664.00;;;;;;5037389;28;20031;-65
2021/06/22 06:00:16;;;;;;;24.80;8.32;;;716.80;1689.60;;;;;;5035811;28;20028;-64
2021/06/22 06:02:42;;;;;;;22.48;8.13;;;716.80;1664.00;;;;;;5035647;28;20091;-64
2021/06/22 06:05:09;;;;;;;34.88;9.43;;;716.90;1664.00;;;;;;5036935;28;20045;-64
2021/06/22 06:07:36;;;;;;;26.10;7.72;;;716.90;1664.00;;;;;;5036913;28;20084;-65
2021/06/22 06:10:03;;;;;;;30.75;7.88;;;717.00;1638.40;;;;;;5036829;28;20079;-66
2021/06/22 06:12:29;;;;;;;35.50;9.20;;;717.10;1638.40;;;;;;5036875;28;20477;-65
2021/06/22 06:14:55;;;;;;;24.50;7.60;;;717.20;1638.40;;;;;;5036732;28;20079;-66
2021/06/22 06:17:21;;;;;;;20.05;8.02;;;717.20;1664.00;;;;;;5036731;28;20107;-65
2021/06/22 06:19:47;;;;;;;27.95;7.53;;;717.30;1638.40;;;;;;5036868;28;20105;-66
2021/06/22 06:22:13;;;;;;;23.10;8.18;;;717.30;1612.80;;;;;;5036872;28;20038;-64
2021/06/22 06:24:39;;;;;;;17.08;7.20;;;717.50;1612.80;;;;;;5036989;28;20089;-65
2021/06/22 06:27:11;;;;;;;26.73;8.00;;;717.60;1612.80;;;;;;5054973;28;20473;-65
2021/06/22 06:29:57;;;;;;;20.02;8.68;;;717.60;1587.20;;;;;;5056664;28;20028;-64
2021/06/22 06:32:23;;;;;;;21.05;7.78;;;717.70;1587.20;;;;;;5058913;28;20032;-65
2021/06/22 06:34:49;;;;;;;21.90;7.40;;;742.50;1587.20;;;;;;5056265;28;20021;-66
2021/06/22 06:37:15;;;;;;;20.55;6.95;;;742.50;1587.20;;;;;;5056520;28;20035;-65
2021/06/22 06:39:41;;;;;;;23.55;6.88;;;742.60;1561.60;;;;;;5056211;28;20029;-67
2021/06/22 06:42:07;;;;;;;37.95;7.63;;;742.60;1536.00;;;;;;5056090;28;20033;-65
2021/06/22 06:44:33;;;;;;;26.13;7.57;;;742.80;1561.60;;;;;;5056144;28;20485;-65
2021/06/22 06:46:59;;;;;;;21.45;7.32;;;742.90;1536.00;;;;;;5038217;28;20116;-65
2021/06/22 06:49:25;;;;;;;23.48;7.53;;;742.90;1536.00;;;;;;5068401;28;20020;-68
2021/06/22 06:51:51;;;;;;;30.30;7.05;;;743.00;1536.00;;;;;;5076020;28;20025;-64
2021/06/22 06:54:16;;;;;;;22.38;7.18;;;743.00;1510.40;;;;;;5074650;28;20474;-66
2021/06/22 06:56:42;;;;;;;17.55;6.88;;;743.10;1510.40;;;;;;5075847;28;20016;-65
2021/06/22 06:59:08;;;;;;;29.73;7.80;;;743.10;1510.40;;;;;;5075903;28;20098;-65
2021/06/22 07:01:34;;;;;;;39.42;8.38;;;743.30;1510.40;;;;;;5057634;28;20035;-65
2021/06/22 07:04:00;;;;;;;34.15;8.65;;;743.30;1510.40;;;;;;5057134;28;20025;-65
2021/06/22 07:06:26;;;;;;;36.30;8.57;;;768.00;1484.80;;;;;;5054896;28;20017;-66
2021/06/22 07:08:52;;;;;;;29.90;7.22;;;768.10;1484.80;;;;;;5054711;28;20032;-65
2021/06/22 07:11:21;;;;;;;29.63;8.30;;;768.20;1459.20;;;;;;5055398;28;20017;-64
2021/06/22 07:13:48;;;;;;;29.80;7.28;;;768.20;1459.20;;;;;;5055318;28;20147;-65
2021/06/22 07:16:15;;;;;;;34.33;7.70;;;768.30;1433.60;;;;;;5055264;28;20037;-64
2021/06/22 07:18:40;;;;;;;26.38;7.60;;;768.40;1459.20;;;;;;5055421;28;20021;-65
2021/06/22 07:21:06;;;;;;;33.58;8.15;;;768.50;1459.20;;;;;;5037471;28;20569;-65
2021/06/22 07:23:32;;;;;;;33.33;7.32;;;768.60;1433.60;;;;;;5055493;28;20362;-67
2021/06/22 07:25:58;;;;;;;25.42;7.68;;;768.60;1433.60;;;;;;5054883;28;20099;-66
2021/06/22 07:28:24;;;;;;;22.08;6.90;;;768.70;1408.00;;;;;;5054821;28;20036;-66
2021/06/22 07:30:50;;;;;;;27.60;7.68;;;768.70;1408.00;;;;;;5054892;28;20096;-68
2021/06/22 07:33:18;;;;;;;35.67;7.75;;;768.70;1433.60;;;;;;5054755;28;20053;-67
2021/06/22 07:35:45;;;;;;;24.02;6.53;;;768.80;1408.00;;;;;;5054277;28;20025;-66
2021/06/22 07:38:11;;;;;;;31.95;8.07;;;768.80;1356.80;;;;;;5054705;28;20108;-65
2021/06/22 07:40:38;;;;;;;38.25;8.02;;;768.90;1382.40;;;;;;5054190;28;20021;-67
2021/06/22 07:43:05;;;;;;;29.05;7.85;;;768.90;1382.40;;;;;;5054573;28;20507;-65
2021/06/22 07:45:31;;;;;;;31.15;7.30;;;793.60;1433.60;;;;;;5053792;28;20075;-67
2021/06/22 07:47:57;;;;;;;36.28;7.80;;;793.60;1433.60;;;;;;5050087;28;20029;-65
2021/06/22 07:50:24;;;;;;;68.88;29.23;;;793.70;1382.40;;;;;;5074697;28;20023;-67
2021/06/22 07:52:51;;;;;;;48.03;9.63;;;793.60;1356.80;;;;;;5061890;28;20037;-65
2021/06/22 07:55:17;;;;;;;34.42;9.20;;;793.60;1382.40;;;;;;5062498;28;20075;-69
2021/06/22 07:57:48;;;;;;;34.15;10.40;;;793.60;1382.40;;;;;;5062505;28;20476;-72
2021/06/22 08:00:26;;;;;;;36.88;12.25;;;793.70;1408.00;;;;;;5063183;28;20104;-65
2021/06/22 08:02:52;;;;;;;31.77;10.45;;;793.80;1408.00;;;;;;5063795;28;20113;-65
2021/06/22 08:05:18;;;;;;;31.38;10.05;;;793.90;1408.00;;;;;;5062271;28;20017;-69
2021/06/22 08:07:44;;;;;;;33.20;9.18;;;793.90;1382.40;;;;;;5065621;28;20025;-66
2021/06/22 08:10:10;;;;;;;31.17;8.77;;;794.10;1382.40;;;;;;5068239;28;20021;-64
2021/06/22 08:12:36;;;;;;;32.17;8.18;;;794.10;1382.40;;;;;;5073986;28;20032;-64
2021/06/22 08:15:03;;;;;;;38.28;9.10;;;794.10;1356.80;;;;;;5063752;28;20105;-64
2021/06/22 08:17:29;;;;;;;32.38;8.18;;;794.10;1356.80;;;;;;5070079;28;20701;-64
2021/06/22 08:19:54;;;;;;;35.53;7.43;;;794.20;1305.60;;;;;;5060376;28;20037;-65
2021/06/22 08:22:20;;;;;;;31.58;7.85;;;794.20;1356.80;;;;;;5062895;28;20036;-67
2021/06/22 08:24:46;;;;;;;33.20;7.18;;;794.30;1356.80;;;;;;5073905;28;20073;-68
2021/06/22 08:27:12;;;;;;;31.20;7.22;;;794.30;1356.80;;;;;;5073870;28;20052;-65
2021/06/22 08:29:38;;;;;;;38.10;7.03;;;794.30;1331.20;;;;;;5061245;28;20469;-66
2021/06/22 08:32:04;;;;;;;33.50;6.72;;;794.30;1280.00;;;;;;5069444;28;20067;-66
2021/06/22 08:34:30;;;;;;;29.20;7.40;;;794.40;1254.40;;;;;;5073782;28;20448;-69
2021/06/22 08:36:56;;;;;;;33.90;7.35;;;794.40;1203.20;;;;;;5073817;28;20056;-65
2021/06/22 08:39:22;;;;;;;43.17;8.27;;;794.40;1203.20;;;;;;5073747;28;20103;-65
2021/06/22 08:41:50;;;;;;;30.10;7.53;;;794.40;1280.00;;;;;;5073607;28;20029;-69
2021/06/22 08:44:19;;;;;;;31.75;7.45;;;794.40;1203.20;;;;;;5073751;28;20025;-68
2021/06/22 08:46:46;;;;;;;31.63;7.60;;;794.50;1203.20;;;;;;5052424;28;20143;-64
2021/06/22 08:49:13;;;;;;;34.72;7.47;;;794.50;1228.80;;;;;;5056780;28;20028;-65
2021/06/22 08:51:41;;;;;;;45.30;8.07;;;819.20;1280.00;;;;;;5053586;28;20070;-64
2021/06/22 08:54:08;;;;;;;36.72;7.75;;;819.20;1254.40;;;;;;5053929;28;20516;-65
2021/06/22 08:56:34;;;;;;;41.75;11.93;;;819.20;1228.80;;;;;;5053841;28;20025;-65
2021/06/22 08:59:00;;;;;;;45.55;13.77;;;819.20;1177.60;;;;;;5056273;28;20413;-64
2021/06/22 09:01:26;;;;;;;41.50;8.63;;;819.20;1152.00;;;;;;5063936;28;20157;-65
2021/06/22 09:03:52;;;;;;;43.45;8.25;;;819.20;1177.60;;;;;;5062092;28;20477;-64
2021/06/22 09:06:18;;;;;;;40.38;9.90;;;819.20;1152.00;;;;;;5062858;28;20032;-66
2021/06/22 09:08:54;;;;;;;55.38;18.88;;;819.20;1177.60;;;;;;5058452;28;20063;-66
2021/06/22 09:11:21;;;;;;;38.70;8.23;;;819.20;1100.80;;;;;;5053171;28;20036;-65
2021/06/22 09:13:57;;;;;;;58.13;11.63;;;819.20;1152.00;;;;;;5053216;28;20108;-65
2021/06/22 09:16:23;;;;;;;39.25;9.95;;;819.20;1100.80;;;;;;5046751;28;20048;-65
2021/06/22 09:18:49;;;;;;;34.83;7.63;;;819.40;1126.40;;;;;;5064291;28;20058;-65
2021/06/22 09:21:24;;;;;;;43.20;9.38;;;819.30;1126.40;;;;;;5069983;28;20025;-65
2021/06/22 09:23:53;;;;;;;34.95;8.55;;;819.40;1177.60;;;;;;5062236;28;20025;-66
2021/06/22 09:26:21;;;;;;;40.15;6.90;;;819.40;1152.00;;;;;;5061542;28;20168;-65
2021/06/22 09:28:52;;;;;;;33.03;7.13;;;819.40;1126.40;;;;;;5061570;28;20017;-65
2021/06/22 09:31:23;;;;;;;46.40;7.75;;;819.40;1126.40;;;;;;5041391;28;20021;-65
2021/06/22 09:33:51;;;;;;;44.63;7.53;;;819.40;1100.80;;;;;;5053137;28;20104;-65
2021/06/22 09:36:21;;;;;;;47.83;8.02;;;819.50;1100.80;;;;;;5053106;28;20020;-68
2021/06/22 09:38:54;;;;;;;40.58;7.57;;;819.50;1075.20;;;;;;5061957;28;20033;-65
2021/06/22 09:41:20;;;;;;;;;;;819.50;1100.80;;;;;;5073743;28;20542;-65
2021/06/22 09:43:49;;;;;;;46.30;10.32;;;819.60;1075.20;;;;;;5073030;28;20280;-65
2021/06/22 09:46:17;;;;;;;39.75;8.05;;;819.60;1075.20;;;;;;5072969;28;20021;-68
2021/06/22 09:48:48;;;;;;;40.35;7.90;;;819.60;1100.80;;;;;;5070116;28;20476;-65
2021/06/22 09:51:14;;;;;;;37.72;8.32;;;819.60;1100.80;;;;;;5061786;28;20387;-65
2021/06/22 09:53:40;;;;;;;33.67;7.45;;;819.60;1126.40;;;;;;5038957;28;20513;-64
2021/06/22 09:56:20;;;;;;;37.90;8.20;;;819.70;1126.40;;;;;;5052832;28;20025;-65
2021/06/22 09:58:46;;;;;;;42.72;7.82;;;819.80;1126.40;;;;;;5069008;28;20499;-66
2021/06/22 10:01:33;;;;;;;41.38;7.95;;;819.80;1126.40;;;;;;5067434;28;20495;-67
2021/06/22 10:04:24;;;;;;;41.40;7.72;;;819.80;1100.80;;;;;;5060650;28;20063;-66
2021/06/22 10:06:59;;;;;;;37.03;8.00;;;819.80;1100.80;;;;;;5053039;28;20029;-65
2021/06/22 10:09:28;;;;;;;46.10;7.75;;;819.80;1100.80;;;;;;5061713;28;20026;-67
2021/06/22 10:12:06;;;;;;;38.80;7.05;;;819.80;1100.80;;;;;;5061859;28;20460;-64
2021/06/22 10:14:44;;;;;;;32.22;6.95;;;819.90;1126.40;;;;;;5048369;28;20036;-65
2021/06/22 10:17:18;;;;;;;28.85;7.13;;;819.90;1100.80;;;;;;5067035;28;20021;-65
2021/06/22 10:19:46;;;;;;;37.25;11.02;;;819.90;1126.40;;;;;;5054671;28;20119;-65
2021/06/22 10:22:14;;;;;;;46.80;7.82;;;819.90;1075.20;;;;;;5072753;28;20029;-65
2021/06/22 10:24:43;;;;;;;27.27;7.03;;;820.10;1075.20;;;;;;5073035;28;20021;-65
2021/06/22 10:27:10;;;;;;;39.42;7.68;;;820.00;1126.40;;;;;;5072632;28;20090;-66
2021/06/22 10:29:36;;;;;;;38.28;9.32;;;820.10;1126.40;;;;;;5076282;28;20055;-65
2021/06/22 10:32:03;;;;;;;40.00;7.72;;;844.80;1152.00;;;;;;5062547;28;20183;-69
2021/06/22 10:34:30;;;;;;;39.35;15.70;;;844.80;1126.40;;;;;;5067816;28;20017;-72
2021/06/22 10:37:10;;;;;;;47.72;13.93;;;844.80;1126.40;;;;;;5074565;28;20021;-66
2021/06/22 10:39:50;;;;;;;34.70;9.10;;;844.80;1126.40;;;;;;5072419;28;20017;-66
2021/06/22 10:42:16;;;;;;;25.58;7.40;;;844.90;1152.00;;;;;;5073740;28;20032;-68
2021/06/22 10:44:45;;;;;;;39.88;7.70;;;844.90;1126.40;;;;;;5073309;28;20537;-67
2021/06/22 10:47:27;;;;;;;36.95;7.93;;;844.90;1126.40;;;;;;5058952;28;20469;-67
2021/06/22 10:50:00;;;;;;;36.53;7.50;;;844.90;1126.40;;;;;;5054145;28;20021;-66
2021/06/22 10:52:50;;;;;;;38.17;7.25;;;845.00;1126.40;;;;;;5054446;28;20107;-68
2021/06/22 10:55:28;;;;;;;32.78;6.65;;;844.90;1126.40;;;;;;5044242;28;20511;-68
2021/06/22 10:58:01;;;;;;;36.47;7.95;;;845.00;1075.20;;;;;;5054538;28;20381;-67
2021/06/22 11:00:28;;;;;;;33.38;7.32;;;845.00;1100.80;;;;;;5056520;28;20074;-72
2021/06/22 11:03:04;;;;;;;33.80;7.13;;;845.00;1100.80;;;;;;5074337;28;20028;-73
2021/06/22 11:05:31;;;;;;;37.25;8.65;;;845.10;1049.60;;;;;;5074017;28;20380;-67
2021/06/22 11:08:16;;;;;;;48.03;8.77;;;845.10;1100.80;;;;;;5074292;28;20055;-69
2021/06/22 11:11:07;;;;;;;35.72;8.27;;;845.20;1075.20;;;;;;5074439;28;20033;-65
2021/06/22 11:13:42;;;;;;;30.58;7.38;;;845.20;1100.80;;;;;;5073574;28;20080;-64
2021/06/22 11:16:14;;;;;;;45.00;7.50;;;845.20;1100.80;;;;;;5056163;28;20024;-64
2021/06/22 11:18:52;;;;;;;38.88;8.35;;;845.20;1049.60;;;;;;5073705;28;20028;-62
2021/06/22 11:21:28;;;;;;;35.47;7.65;;;845.20;1075.20;;;;;;5074177;28;20477;-63
2021/06/22 11:24:14;;;;;;;42.25;7.93;;;845.20;1100.80;;;;;;5073772;28;20063;-62
2021/06/22 11:26:46;;;;;;;37.08;7.43;;;845.30;1024.00;;;;;;5073598;28;20405;-62
2021/06/22 11:29:13;;;;;;;31.20;7.97;;;845.40;1024.00;;;;;;5073959;28;20103;-65
2021/06/22 11:31:42;;;;;;;38.47;7.63;;;845.40;1024.00;;;;;;5074202;28;20033;-63
2021/06/22 11:34:15;;;;;;;40.47;7.88;;;845.50;1024.00;;;;;;5073568;28;20021;-62
2021/06/22 11:36:47;;;;;;;35.13;8.52;;;845.50;1024.00;;;;;;5073674;28;20120;-64
2021/06/22 11:39:28;;;;;;;33.95;7.07;;;870.40;1049.60;;;;;;5071921;28;20016;-65
2021/06/22 11:42:12;;;;;;;38.38;7.78;;;845.50;1049.60;;;;;;5073224;28;20630;-63
2021/06/22 11:44:55;;;;;;;46.53;7.45;;;845.60;1049.60;;;;;;5072928;28;20052;-63
2021/06/22 11:47:26;;;;;;;40.05;7.53;;;845.60;1049.60;;;;;;5073056;28;20130;-62
2021/06/22 11:49:54;;;;;;;38.15;7.38;;;845.60;1049.60;;;;;;5069654;28;20025;-65
2021/06/22 11:52:41;;;;;;;36.10;7.10;;;870.40;1024.00;;;;;;5065936;28;20379;-65
2021/06/22 11:55:14;;;;;;;45.33;8.40;;;870.40;1049.60;;;;;;5055422;28;20177;-71
2021/06/22 11:57:42;;;;;;;37.55;7.65;;;870.40;1049.60;;;;;;5053002;28;20025;-71
2021/06/22 12:00:14;;;;;;;46.80;7.40;;;870.40;1075.20;;;;;;5053768;28;20365;-72
2021/06/22 12:03:01;;;;;;;;;;;870.40;1075.20;;;;;;5052276;28;20033;-72
2021/06/22 12:05:29;;;;;;;34.35;7.78;;;870.50;1049.60;;;;;;5051618;28;20430;-72
2021/06/22 12:07:57;;;;;;;34.50;8.95;;;870.50;998.40;;;;;;5052219;28;20147;-71
2021/06/22 12:10:47;;;;;;;38.78;7.20;;;870.50;1024.00;;;;;;5053365;28;20027;-71
2021/06/22 12:13:27;;;;;;;41.45;7.07;;;870.60;1024.00;;;;;;5048995;28;20040;-71
2021/06/22 12:15:53;;;;;;;51.38;8.35;;;870.60;1024.00;;;;;;5052894;28;20024;-71
2021/06/22 12:18:24;;;;;;;45.28;8.10;;;870.60;998.40;;;;;;5052769;28;20025;-70